sensor_id;sensor_type;location;lat;lon;timestamp;P1;durP1;ratioP1;P2;durP2;ratioP2
56321;SDS011;42227;6.376;-10.782;2023-09-12T00:02:15;27.77;;;22.40;;
56321;SDS011;42227;6.376;-10.782;2023-09-12T00:04:44;12.35;;;8.55;;
56321;SDS011;42227;6.376;-10.782;2023-09-12T00:07:13;16.13;;;12.20;;
56321;SDS011;42227;6.376;-10.782;2023-09-12T00:09:42;8.38;;;6.85;;
56321;SDS011;42227;6.376;-10.782;2023-09-12T00:12:13;28.67;;;20.95;;
56321;SDS011;42227;6.376;-10.782;2023-09-12T00:14:43;97.47;;;74.40;;
56321;SDS011;42227;6.376;-10.782;2023-09-12T00:17:11;58.65;;;40.72;;
56321;SDS011;42227;6.376;-10.782;2023-09-12T00:19:40;41.15;;;29.33;;
56321;SDS011;42227;6.376;-10.782;2023-09-12T00:22:10;34.60;;;24.00;;
56321;SDS011;42227;6.376;-10.782;2023-09-12T00:24:38;87.55;;;63.40;;
56321;SDS011;42227;6.376;-10.782;2023-09-12T00:27:10;118.03;;;89.00;;
56321;SDS011;42227;6.376;-10.782;2023-09-12T00:29:40;77.40;;;52.88;;
56321;SDS011;42227;6.376;-10.782;2023-09-12T00:32:09;64.90;;;43.00;;
56321;SDS011;42227;6.376;-10.782;2023-09-12T00:34:37;88.63;;;63.40;;
56321;SDS011;42227;6.376;-10.782;2023-09-12T00:37:06;31.40;;;19.48;;
56321;SDS011;42227;6.376;-10.782;2023-09-12T00:39:35;17.60;;;12.70;;
56321;SDS011;42227;6.376;-10.782;2023-09-12T00:42:04;19.33;;;9.55;;
56321;SDS011;42227;6.376;-10.782;2023-09-12T00:44:33;13.98;;;9.18;;
56321;SDS011;42227;6.376;-10.782;2023-09-12T00:47:02;7.47;;;4.47;;
56321;SDS011;42227;6.376;-10.782;2023-09-12T00:49:32;17.40;;;10.77;;
56321;SDS011;42227;6.376;-10.782;2023-09-12T00:52:02;6.63;;;2.85;;
56321;SDS011;42227;6.376;-10.782;2023-09-12T00:54:32;3.03;;;2.20;;
56321;SDS011;42227;6.376;-10.782;2023-09-12T00:57:02;6.00;;;3.42;;
56321;SDS011;42227;6.376;-10.782;2023-09-12T00:59:31;5.97;;;2.75;;
56321;SDS011;42227;6.376;-10.782;2023-09-12T01:02:00;4.60;;;3.13;;
56321;SDS011;42227;6.376;-10.782;2023-09-12T01:04:30;19.75;;;14.20;;
56321;SDS011;42227;6.376;-10.782;2023-09-12T01:07:04;6.18;;;4.03;;
56321;SDS011;42227;6.376;-10.782;2023-09-12T01:09:33;5.03;;;2.90;;
56321;SDS011;42227;6.376;-10.782;2023-09-12T01:12:02;6.15;;;3.70;;
56321;SDS011;42227;6.376;-10.782;2023-09-12T01:14:30;9.85;;;6.75;;
56321;SDS011;42227;6.376;-10.782;2023-09-12T01:16:59;18.58;;;14.20;;
56321;SDS011;42227;6.376;-10.782;2023-09-12T01:19:28;9.30;;;6.32;;
56321;SDS011;42227;6.376;-10.782;2023-09-12T01:24:32;8.75;;;4.25;;
56321;SDS011;42227;6.376;-10.782;2023-09-12T01:30:13;6.88;;;5.32;;
56321;SDS011;42227;6.376;-10.782;2023-09-12T01:32:47;11.10;;;5.20;;
56321;SDS011;42227;6.376;-10.782;2023-09-12T01:35:17;5.13;;;3.85;;
56321;SDS011;42227;6.376;-10.782;2023-09-12T01:37:46;9.45;;;7.05;;
56321;SDS011;42227;6.376;-10.782;2023-09-12T01:40:14;8.55;;;6.93;;
56321;SDS011;42227;6.376;-10.782;2023-09-12T01:42:44;10.27;;;5.28;;
56321;SDS011;42227;6.376;-10.782;2023-09-12T01:45:15;5.45;;;2.70;;
56321;SDS011;42227;6.376;-10.782;2023-09-12T01:47:50;8.40;;;4.22;;
56321;SDS011;42227;6.376;-10.782;2023-09-12T01:50:19;10.00;;;3.67;;
56321;SDS011;42227;6.376;-10.782;2023-09-12T01:52:48;6.68;;;3.92;;
56321;SDS011;42227;6.376;-10.782;2023-09-12T01:55:17;10.55;;;6.07;;
56321;SDS011;42227;6.376;-10.782;2023-09-12T01:57:46;9.25;;;6.03;;
56321;SDS011;42227;6.376;-10.782;2023-09-12T02:00:17;5.13;;;4.53;;
56321;SDS011;42227;6.376;-10.782;2023-09-12T02:02:48;7.82;;;5.28;;
56321;SDS011;42227;6.376;-10.782;2023-09-12T02:05:18;9.00;;;6.43;;
56321;SDS011;42227;6.376;-10.782;2023-09-12T02:07:50;9.13;;;4.78;;
56321;SDS011;42227;6.376;-10.782;2023-09-12T02:10:23;9.95;;;4.88;;
56321;SDS011;42227;6.376;-10.782;2023-09-12T02:12:51;5.05;;;2.88;;
56321;SDS011;42227;6.376;-10.782;2023-09-12T02:15:19;14.65;;;9.43;;
56321;SDS011;42227;6.376;-10.782;2023-09-12T02:17:48;5.43;;;3.70;;
56321;SDS011;42227;6.376;-10.782;2023-09-12T02:20:17;8.27;;;4.03;;
56321;SDS011;42227;6.376;-10.782;2023-09-12T02:22:45;5.28;;;3.88;;
56321;SDS011;42227;6.376;-10.782;2023-09-12T02:25:14;4.82;;;2.40;;
56321;SDS011;42227;6.376;-10.782;2023-09-12T02:27:42;6.63;;;2.90;;
56321;SDS011;42227;6.376;-10.782;2023-09-12T02:30:11;4.28;;;2.85;;
56321;SDS011;42227;6.376;-10.782;2023-09-12T02:32:41;4.57;;;2.60;;
56321;SDS011;42227;6.376;-10.782;2023-09-12T02:35:13;4.55;;;3.15;;
56321;SDS011;42227;6.376;-10.782;2023-09-12T02:37:41;4.22;;;2.20;;
56321;SDS011;42227;6.376;-10.782;2023-09-12T02:40:09;3.25;;;2.28;;
56321;SDS011;42227;6.376;-10.782;2023-09-12T02:42:38;3.63;;;2.42;;
56321;SDS011;42227;6.376;-10.782;2023-09-12T02:45:07;4.30;;;3.13;;
56321;SDS011;42227;6.376;-10.782;2023-09-12T02:47:36;13.30;;;5.90;;
56321;SDS011;42227;6.376;-10.782;2023-09-12T02:50:04;8.75;;;5.25;;
56321;SDS011;42227;6.376;-10.782;2023-09-12T02:52:33;11.27;;;8.15;;
56321;SDS011;42227;6.376;-10.782;2023-09-12T02:55:02;5.78;;;4.43;;
56321;SDS011;42227;6.376;-10.782;2023-09-12T02:57:30;10.25;;;5.95;;
56321;SDS011;42227;6.376;-10.782;2023-09-12T02:59:59;5.20;;;3.05;;
56321;SDS011;42227;6.376;-10.782;2023-09-12T03:02:29;6.80;;;3.40;;
56321;SDS011;42227;6.376;-10.782;2023-09-12T03:04:58;13.30;;;10.75;;
56321;SDS011;42227;6.376;-10.782;2023-09-12T03:07:27;14.07;;;9.15;;
56321;SDS011;42227;6.376;-10.782;2023-09-12T03:09:57;6.43;;;4.80;;
56321;SDS011;42227;6.376;-10.782;2023-09-12T03:12:26;10.32;;;6.78;;
56321;SDS011;42227;6.376;-10.782;2023-09-12T03:14:54;6.15;;;4.13;;
56321;SDS011;42227;6.376;-10.782;2023-09-12T03:17:25;11.60;;;6.30;;
56321;SDS011;42227;6.376;-10.782;2023-09-12T03:19:55;10.27;;;7.18;;
56321;SDS011;42227;6.376;-10.782;2023-09-12T03:22:24;16.52;;;8.10;;
56321;SDS011;42227;6.376;-10.782;2023-09-12T03:24:52;11.00;;;7.90;;
56321;SDS011;42227;6.376;-10.782;2023-09-12T03:27:21;11.85;;;8.13;;
56321;SDS011;42227;6.376;-10.782;2023-09-12T03:29:49;11.07;;;8.57;;
56321;SDS011;42227;6.376;-10.782;2023-09-12T03:32:18;13.18;;;8.65;;
56321;SDS011;42227;6.376;-10.782;2023-09-12T03:34:47;7.22;;;5.45;;
56321;SDS011;42227;6.376;-10.782;2023-09-12T03:37:15;10.75;;;6.43;;
56321;SDS011;42227;6.376;-10.782;2023-09-12T03:39:44;11.25;;;7.35;;
56321;SDS011;42227;6.376;-10.782;2023-09-12T03:42:13;12.40;;;7.18;;
56321;SDS011;42227;6.376;-10.782;2023-09-12T03:44:41;10.80;;;6.78;;
56321;SDS011;42227;6.376;-10.782;2023-09-12T03:47:09;12.88;;;8.90;;
56321;SDS011;42227;6.376;-10.782;2023-09-12T03:49:38;11.55;;;6.07;;
56321;SDS011;42227;6.376;-10.782;2023-09-12T03:52:06;10.07;;;6.82;;
56321;SDS011;42227;6.376;-10.782;2023-09-12T03:54:35;9.48;;;6.15;;
56321;SDS011;42227;6.376;-10.782;2023-09-12T03:57:03;8.25;;;4.53;;
56321;SDS011;42227;6.376;-10.782;2023-09-12T03:59:33;7.22;;;3.50;;
56321;SDS011;42227;6.376;-10.782;2023-09-12T04:02:02;5.53;;;3.70;;
56321;SDS011;42227;6.376;-10.782;2023-09-12T04:04:30;6.05;;;3.28;;
56321;SDS011;42227;6.376;-10.782;2023-09-12T04:06:59;5.85;;;3.95;;
56321;SDS011;42227;6.376;-10.782;2023-09-12T04:09:28;4.70;;;2.70;;
56321;SDS011;42227;6.376;-10.782;2023-09-12T04:11:56;7.35;;;4.63;;
56321;SDS011;42227;6.376;-10.782;2023-09-12T04:14:25;10.85;;;4.35;;
56321;SDS011;42227;6.376;-10.782;2023-09-12T04:16:54;4.95;;;3.78;;
56321;SDS011;42227;6.376;-10.782;2023-09-12T04:19:23;6.47;;;3.53;;
56321;SDS011;42227;6.376;-10.782;2023-09-12T04:21:52;7.95;;;3.92;;
56321;SDS011;42227;6.376;-10.782;2023-09-12T04:24:21;3.95;;;3.08;;
56321;SDS011;42227;6.376;-10.782;2023-09-12T04:26:49;5.07;;;3.22;;
56321;SDS011;42227;6.376;-10.782;2023-09-12T04:29:17;5.15;;;3.28;;
56321;SDS011;42227;6.376;-10.782;2023-09-12T04:31:46;3.95;;;2.85;;
56321;SDS011;42227;6.376;-10.782;2023-09-12T04:34:14;9.52;;;2.92;;
56321;SDS011;42227;6.376;-10.782;2023-09-12T04:36:43;4.25;;;3.25;;
56321;SDS011;42227;6.376;-10.782;2023-09-12T04:39:11;7.70;;;4.18;;
56321;SDS011;42227;6.376;-10.782;2023-09-12T04:41:40;5.75;;;3.42;;
56321;SDS011;42227;6.376;-10.782;2023-09-12T04:44:08;4.22;;;3.03;;
56321;SDS011;42227;6.376;-10.782;2023-09-12T04:46:37;3.97;;;2.60;;
56321;SDS011;42227;6.376;-10.782;2023-09-12T04:51:37;6.13;;;3.42;;
56321;SDS011;42227;6.376;-10.782;2023-09-12T04:54:06;8.00;;;3.25;;
56321;SDS011;42227;6.376;-10.782;2023-09-12T04:56:35;6.13;;;3.38;;
56321;SDS011;42227;6.376;-10.782;2023-09-12T04:59:03;7.22;;;3.55;;
56321;SDS011;42227;6.376;-10.782;2023-09-12T05:01:32;6.10;;;2.97;;
56321;SDS011;42227;6.376;-10.782;2023-09-12T05:04:00;5.00;;;2.72;;
56321;SDS011;42227;6.376;-10.782;2023-09-12T05:06:29;4.15;;;2.95;;
56321;SDS011;42227;6.376;-10.782;2023-09-12T05:08:58;3.88;;;2.90;;
56321;SDS011;42227;6.376;-10.782;2023-09-12T05:11:26;4.47;;;2.42;;
56321;SDS011;42227;6.376;-10.782;2023-09-12T05:13:55;5.45;;;3.47;;
56321;SDS011;42227;6.376;-10.782;2023-09-12T05:16:24;4.55;;;2.80;;
56321;SDS011;42227;6.376;-10.782;2023-09-12T05:18:53;10.52;;;4.13;;
56321;SDS011;42227;6.376;-10.782;2023-09-12T05:21:21;7.90;;;3.60;;
56321;SDS011;42227;6.376;-10.782;2023-09-12T05:23:50;8.85;;;3.90;;
56321;SDS011;42227;6.376;-10.782;2023-09-12T05:26:18;7.53;;;4.80;;
56321;SDS011;42227;6.376;-10.782;2023-09-12T05:28:47;3.97;;;2.97;;
56321;SDS011;42227;6.376;-10.782;2023-09-12T05:31:16;14.13;;;4.95;;
56321;SDS011;42227;6.376;-10.782;2023-09-12T05:33:45;6.65;;;4.28;;
56321;SDS011;42227;6.376;-10.782;2023-09-12T05:36:14;8.75;;;5.80;;
56321;SDS011;42227;6.376;-10.782;2023-09-12T05:38:42;9.82;;;7.20;;
56321;SDS011;42227;6.376;-10.782;2023-09-12T05:41:11;11.02;;;7.55;;
56321;SDS011;42227;6.376;-10.782;2023-09-12T05:43:40;15.05;;;13.55;;
56321;SDS011;42227;6.376;-10.782;2023-09-12T05:46:08;20.60;;;18.60;;
56321;SDS011;42227;6.376;-10.782;2023-09-12T05:48:37;13.73;;;7.20;;
56321;SDS011;42227;6.376;-10.782;2023-09-12T05:51:06;6.63;;;5.07;;
56321;SDS011;42227;6.376;-10.782;2023-09-12T05:53:34;6.50;;;4.70;;
56321;SDS011;42227;6.376;-10.782;2023-09-12T05:56:03;5.32;;;4.53;;
56321;SDS011;42227;6.376;-10.782;2023-09-12T05:58:31;8.07;;;4.25;;
56321;SDS011;42227;6.376;-10.782;2023-09-12T06:01:00;6.22;;;3.92;;
56321;SDS011;42227;6.376;-10.782;2023-09-12T06:03:30;8.07;;;5.18;;
56321;SDS011;42227;6.376;-10.782;2023-09-12T06:05:58;11.05;;;3.97;;
56321;SDS011;42227;6.376;-10.782;2023-09-12T06:08:27;4.70;;;3.17;;
56321;SDS011;42227;6.376;-10.782;2023-09-12T06:10:55;8.85;;;4.18;;
56321;SDS011;42227;6.376;-10.782;2023-09-12T06:13:23;8.50;;;4.32;;
56321;SDS011;42227;6.376;-10.782;2023-09-12T06:15:52;6.28;;;4.10;;
56321;SDS011;42227;6.376;-10.782;2023-09-12T06:18:20;6.88;;;3.58;;
56321;SDS011;42227;6.376;-10.782;2023-09-12T06:20:51;7.55;;;4.10;;
56321;SDS011;42227;6.376;-10.782;2023-09-12T06:23:19;5.57;;;3.67;;
56321;SDS011;42227;6.376;-10.782;2023-09-12T06:25:47;5.50;;;4.72;;
56321;SDS011;42227;6.376;-10.782;2023-09-12T06:28:29;5.95;;;3.70;;
56321;SDS011;42227;6.376;-10.782;2023-09-12T06:33:26;16.30;;;3.80;;
56321;SDS011;42227;6.376;-10.782;2023-09-12T06:35:55;5.68;;;4.25;;
56321;SDS011;42227;6.376;-10.782;2023-09-12T06:38:23;10.60;;;5.15;;
56321;SDS011;42227;6.376;-10.782;2023-09-12T06:40:52;7.38;;;5.93;;
56321;SDS011;42227;6.376;-10.782;2023-09-12T06:43:20;7.30;;;5.03;;
56321;SDS011;42227;6.376;-10.782;2023-09-12T06:45:49;11.45;;;4.43;;
56321;SDS011;42227;6.376;-10.782;2023-09-12T06:48:17;10.50;;;4.97;;
56321;SDS011;42227;6.376;-10.782;2023-09-12T06:50:46;13.20;;;4.93;;
56321;SDS011;42227;6.376;-10.782;2023-09-12T06:53:19;6.03;;;5.30;;
56321;SDS011;42227;6.376;-10.782;2023-09-12T06:55:48;7.93;;;5.40;;
56321;SDS011;42227;6.376;-10.782;2023-09-12T06:58:16;9.00;;;5.93;;
56321;SDS011;42227;6.376;-10.782;2023-09-12T07:00:45;9.90;;;5.85;;
56321;SDS011;42227;6.376;-10.782;2023-09-12T07:03:14;7.43;;;5.38;;
56321;SDS011;42227;6.376;-10.782;2023-09-12T07:05:43;10.27;;;6.47;;
56321;SDS011;42227;6.376;-10.782;2023-09-12T07:08:11;10.65;;;4.82;;
56321;SDS011;42227;6.376;-10.782;2023-09-12T07:10:44;6.35;;;4.95;;
56321;SDS011;42227;6.376;-10.782;2023-09-12T07:13:12;8.70;;;5.72;;
56321;SDS011;42227;6.376;-10.782;2023-09-12T07:15:41;6.82;;;5.13;;
56321;SDS011;42227;6.376;-10.782;2023-09-12T07:18:09;13.80;;;5.20;;
56321;SDS011;42227;6.376;-10.782;2023-09-12T07:20:38;8.18;;;4.82;;
56321;SDS011;42227;6.376;-10.782;2023-09-12T07:23:06;7.53;;;5.13;;
56321;SDS011;42227;6.376;-10.782;2023-09-12T07:25:37;5.45;;;4.63;;
56321;SDS011;42227;6.376;-10.782;2023-09-12T07:28:07;10.10;;;8.32;;
56321;SDS011;42227;6.376;-10.782;2023-09-12T07:30:38;11.43;;;7.07;;
56321;SDS011;42227;6.376;-10.782;2023-09-12T07:33:09;7.40;;;6.22;;
56321;SDS011;42227;6.376;-10.782;2023-09-12T07:35:37;7.63;;;6.18;;
56321;SDS011;42227;6.376;-10.782;2023-09-12T07:38:07;9.73;;;6.28;;
56321;SDS011;42227;6.376;-10.782;2023-09-12T07:40:35;5.50;;;3.22;;
56321;SDS011;42227;6.376;-10.782;2023-09-12T07:43:04;8.00;;;3.60;;
56321;SDS011;42227;6.376;-10.782;2023-09-12T07:45:32;7.40;;;4.90;;
56321;SDS011;42227;6.376;-10.782;2023-09-12T07:48:02;9.30;;;6.63;;
56321;SDS011;42227;6.376;-10.782;2023-09-12T07:50:33;8.70;;;7.30;;
56321;SDS011;42227;6.376;-10.782;2023-09-12T07:53:02;6.30;;;5.05;;
56321;SDS011;42227;6.376;-10.782;2023-09-12T07:55:30;5.55;;;4.38;;
56321;SDS011;42227;6.376;-10.782;2023-09-12T07:57:59;9.23;;;5.47;;
56321;SDS011;42227;6.376;-10.782;2023-09-12T08:00:27;8.05;;;5.35;;
56321;SDS011;42227;6.376;-10.782;2023-09-12T08:02:56;8.18;;;6.47;;
56321;SDS011;42227;6.376;-10.782;2023-09-12T08:05:24;8.10;;;5.25;;
56321;SDS011;42227;6.376;-10.782;2023-09-12T08:07:53;11.77;;;8.30;;
56321;SDS011;42227;6.376;-10.782;2023-09-12T08:10:21;9.32;;;6.20;;
56321;SDS011;42227;6.376;-10.782;2023-09-12T08:12:50;7.43;;;4.97;;
56321;SDS011;42227;6.376;-10.782;2023-09-12T08:15:19;9.52;;;5.82;;
56321;SDS011;42227;6.376;-10.782;2023-09-12T08:17:48;7.28;;;4.43;;
56321;SDS011;42227;6.376;-10.782;2023-09-12T08:20:17;7.10;;;4.50;;
56321;SDS011;42227;6.376;-10.782;2023-09-12T08:22:46;5.90;;;5.18;;
56321;SDS011;42227;6.376;-10.782;2023-09-12T08:25:15;10.57;;;6.88;;
56321;SDS011;42227;6.376;-10.782;2023-09-12T08:27:44;7.90;;;4.32;;
56321;SDS011;42227;6.376;-10.782;2023-09-12T08:30:13;6.22;;;4.75;;
56321;SDS011;42227;6.376;-10.782;2023-09-12T08:32:41;10.05;;;4.78;;
56321;SDS011;42227;6.376;-10.782;2023-09-12T08:35:13;4.90;;;4.20;;
56321;SDS011;42227;6.376;-10.782;2023-09-12T08:37:42;7.43;;;4.38;;
56321;SDS011;42227;6.376;-10.782;2023-09-12T08:40:11;7.75;;;5.30;;
56321;SDS011;42227;6.376;-10.782;2023-09-12T08:42:40;11.02;;;5.50;;
56321;SDS011;42227;6.376;-10.782;2023-09-12T08:47:43;6.47;;;5.20;;
56321;SDS011;42227;6.376;-10.782;2023-09-12T08:52:46;6.18;;;3.65;;
56321;SDS011;42227;6.376;-10.782;2023-09-12T08:55:33;5.47;;;4.10;;
56321;SDS011;42227;6.376;-10.782;2023-09-12T08:58:07;5.68;;;4.43;;
56321;SDS011;42227;6.376;-10.782;2023-09-12T09:00:48;8.27;;;4.45;;
56321;SDS011;42227;6.376;-10.782;2023-09-12T09:03:18;5.85;;;4.00;;
56321;SDS011;42227;6.376;-10.782;2023-09-12T09:05:47;5.70;;;3.28;;
56321;SDS011;42227;6.376;-10.782;2023-09-12T09:08:17;6.57;;;4.32;;
56321;SDS011;42227;6.376;-10.782;2023-09-12T09:10:56;5.32;;;4.25;;
56321;SDS011;42227;6.376;-10.782;2023-09-12T09:13:26;6.18;;;3.80;;
56321;SDS011;42227;6.376;-10.782;2023-09-12T09:18:55;2.72;;;1.67;;
56321;SDS011;42227;6.376;-10.782;2023-09-12T09:21:29;3.97;;;2.85;;
56321;SDS011;42227;6.376;-10.782;2023-09-12T09:24:00;5.60;;;4.25;;
56321;SDS011;42227;6.376;-10.782;2023-09-12T09:29:10;4.55;;;2.85;;
56321;SDS011;42227;6.376;-10.782;2023-09-12T09:31:41;5.57;;;2.90;;
56321;SDS011;42227;6.376;-10.782;2023-09-12T09:34:15;7.43;;;2.88;;
56321;SDS011;42227;6.376;-10.782;2023-09-12T09:36:49;5.20;;;3.38;;
56321;SDS011;42227;6.376;-10.782;2023-09-12T09:39:20;4.35;;;2.72;;
56321;SDS011;42227;6.376;-10.782;2023-09-12T09:41:51;4.63;;;3.33;;
56321;SDS011;42227;6.376;-10.782;2023-09-12T09:44:24;3.08;;;1.98;;
56321;SDS011;42227;6.376;-10.782;2023-09-12T09:46:56;4.45;;;2.33;;
56321;SDS011;42227;6.376;-10.782;2023-09-12T09:49:30;6.00;;;2.20;;
56321;SDS011;42227;6.376;-10.782;2023-09-12T09:52:07;5.13;;;2.45;;
56321;SDS011;42227;6.376;-10.782;2023-09-12T09:54:38;3.17;;;2.60;;
56321;SDS011;42227;6.376;-10.782;2023-09-12T09:57:25;2.53;;;2.08;;
56321;SDS011;42227;6.376;-10.782;2023-09-12T09:59:56;8.98;;;3.03;;
56321;SDS011;42227;6.376;-10.782;2023-09-12T10:02:24;2.92;;;2.33;;
56321;SDS011;42227;6.376;-10.782;2023-09-12T10:04:57;2.80;;;2.30;;
56321;SDS011;42227;6.376;-10.782;2023-09-12T10:07:31;6.13;;;2.28;;
56321;SDS011;42227;6.376;-10.782;2023-09-12T10:10:02;3.27;;;2.63;;
56321;SDS011;42227;6.376;-10.782;2023-09-12T10:12:31;5.70;;;2.97;;
56321;SDS011;42227;6.376;-10.782;2023-09-12T10:15:05;5.50;;;3.35;;
56321;SDS011;42227;6.376;-10.782;2023-09-12T10:17:36;5.40;;;3.00;;
56321;SDS011;42227;6.376;-10.782;2023-09-12T10:22:47;5.75;;;3.25;;
56321;SDS011;42227;6.376;-10.782;2023-09-12T10:25:41;4.07;;;2.92;;
56321;SDS011;42227;6.376;-10.782;2023-09-12T10:28:13;2.83;;;1.80;;
56321;SDS011;42227;6.376;-10.782;2023-09-12T10:30:43;2.63;;;1.98;;
56321;SDS011;42227;6.376;-10.782;2023-09-12T10:33:12;3.80;;;2.88;;
56321;SDS011;42227;6.376;-10.782;2023-09-12T10:35:43;4.00;;;2.50;;
56321;SDS011;42227;6.376;-10.782;2023-09-12T10:38:13;4.07;;;2.72;;
56321;SDS011;42227;6.376;-10.782;2023-09-12T10:40:44;7.05;;;2.70;;
56321;SDS011;42227;6.376;-10.782;2023-09-12T10:43:14;6.72;;;2.78;;
56321;SDS011;42227;6.376;-10.782;2023-09-12T10:45:42;2.50;;;1.90;;
56321;SDS011;42227;6.376;-10.782;2023-09-12T10:48:12;5.95;;;1.88;;
56321;SDS011;42227;6.376;-10.782;2023-09-12T10:50:40;8.32;;;5.30;;
56321;SDS011;42227;6.376;-10.782;2023-09-12T10:56:24;6.43;;;3.40;;
56321;SDS011;42227;6.376;-10.782;2023-09-12T11:01:43;7.50;;;3.33;;
56321;SDS011;42227;6.376;-10.782;2023-09-12T11:06:57;5.72;;;2.67;;
56321;SDS011;42227;6.376;-10.782;2023-09-12T11:09:26;1.73;;;1.50;;
56321;SDS011;42227;6.376;-10.782;2023-09-12T11:12:04;3.50;;;2.08;;
56321;SDS011;42227;6.376;-10.782;2023-09-12T11:15:05;6.18;;;2.83;;
56321;SDS011;42227;6.376;-10.782;2023-09-12T11:17:37;3.47;;;2.50;;
56321;SDS011;42227;6.376;-10.782;2023-09-12T11:20:07;2.75;;;1.88;;
56321;SDS011;42227;6.376;-10.782;2023-09-12T11:22:37;4.75;;;2.85;;
56321;SDS011;42227;6.376;-10.782;2023-09-12T11:30:21;3.90;;;2.33;;
56321;SDS011;42227;6.376;-10.782;2023-09-12T11:32:51;4.20;;;2.65;;
56321;SDS011;42227;6.376;-10.782;2023-09-12T11:35:22;2.28;;;1.90;;
56321;SDS011;42227;6.376;-10.782;2023-09-12T11:37:59;3.97;;;2.20;;
56321;SDS011;42227;6.376;-10.782;2023-09-12T11:43:02;13.35;;;2.83;;
56321;SDS011;42227;6.376;-10.782;2023-09-12T11:45:32;2.95;;;2.08;;
56321;SDS011;42227;6.376;-10.782;2023-09-12T11:48:04;7.35;;;2.22;;
56321;SDS011;42227;6.376;-10.782;2023-09-12T11:50:33;2.60;;;1.90;;
56321;SDS011;42227;6.376;-10.782;2023-09-12T11:53:03;4.82;;;1.80;;
56321;SDS011;42227;6.376;-10.782;2023-09-12T11:55:42;2.78;;;1.80;;
56321;SDS011;42227;6.376;-10.782;2023-09-12T11:58:13;2.92;;;1.50;;
56321;SDS011;42227;6.376;-10.782;2023-09-12T12:00:50;4.05;;;1.50;;
56321;SDS011;42227;6.376;-10.782;2023-09-12T12:03:21;1.80;;;1.48;;
56321;SDS011;42227;6.376;-10.782;2023-09-12T12:05:51;1.80;;;1.35;;
56321;SDS011;42227;6.376;-10.782;2023-09-12T12:08:20;3.53;;;1.70;;
56321;SDS011;42227;6.376;-10.782;2023-09-12T12:10:52;2.20;;;1.73;;
56321;SDS011;42227;6.376;-10.782;2023-09-12T12:13:21;3.65;;;2.08;;
56321;SDS011;42227;6.376;-10.782;2023-09-12T12:15:50;2.28;;;1.70;;
56321;SDS011;42227;6.376;-10.782;2023-09-12T12:18:19;1.65;;;1.30;;
56321;SDS011;42227;6.376;-10.782;2023-09-12T12:20:48;1.85;;;1.55;;
56321;SDS011;42227;6.376;-10.782;2023-09-12T12:23:17;1.67;;;1.48;;
56321;SDS011;42227;6.376;-10.782;2023-09-12T12:25:45;4.00;;;1.98;;
56321;SDS011;42227;6.376;-10.782;2023-09-12T12:28:15;3.15;;;1.80;;
56321;SDS011;42227;6.376;-10.782;2023-09-12T12:30:44;2.15;;;1.60;;
56321;SDS011;42227;6.376;-10.782;2023-09-12T12:33:25;3.38;;;1.75;;
56321;SDS011;42227;6.376;-10.782;2023-09-12T12:36:20;2.75;;;2.10;;
56321;SDS011;42227;6.376;-10.782;2023-09-12T12:38:51;9.10;;;2.45;;
56321;SDS011;42227;6.376;-10.782;2023-09-12T12:41:24;5.43;;;1.63;;
56321;SDS011;42227;6.376;-10.782;2023-09-12T12:44:09;2.42;;;1.67;;
56321;SDS011;42227;6.376;-10.782;2023-09-12T12:46:47;1.30;;;1.20;;
56321;SDS011;42227;6.376;-10.782;2023-09-12T12:49:17;1.27;;;1.10;;
56321;SDS011;42227;6.376;-10.782;2023-09-12T12:51:48;4.45;;;1.63;;
56321;SDS011;42227;6.376;-10.782;2023-09-12T12:54:21;8.55;;;1.83;;
56321;SDS011;42227;6.376;-10.782;2023-09-12T12:56:50;2.38;;;1.38;;
56321;SDS011;42227;6.376;-10.782;2023-09-12T12:59:20;1.45;;;1.17;;
56321;SDS011;42227;6.376;-10.782;2023-09-12T13:01:48;2.15;;;1.40;;
56321;SDS011;42227;6.376;-10.782;2023-09-12T13:04:19;1.30;;;1.20;;
56321;SDS011;42227;6.376;-10.782;2023-09-12T13:06:48;2.78;;;1.23;;
56321;SDS011;42227;6.376;-10.782;2023-09-12T13:09:17;3.30;;;1.20;;
56321;SDS011;42227;6.376;-10.782;2023-09-12T13:11:45;1.38;;;0.93;;
56321;SDS011;42227;6.376;-10.782;2023-09-12T13:14:14;1.80;;;1.20;;
56321;SDS011;42227;6.376;-10.782;2023-09-12T13:16:42;3.50;;;2.35;;
56321;SDS011;42227;6.376;-10.782;2023-09-12T13:19:11;8.50;;;1.45;;
56321;SDS011;42227;6.376;-10.782;2023-09-12T13:24:21;10.63;;;2.35;;
56321;SDS011;42227;6.376;-10.782;2023-09-12T13:26:50;3.30;;;1.90;;
56321;SDS011;42227;6.376;-10.782;2023-09-12T13:29:19;4.18;;;1.80;;
56321;SDS011;42227;6.376;-10.782;2023-09-12T13:31:47;1.25;;;1.17;;
56321;SDS011;42227;6.376;-10.782;2023-09-12T13:34:24;3.03;;;1.80;;
56321;SDS011;42227;6.376;-10.782;2023-09-12T13:36:53;2.67;;;1.50;;
56321;SDS011;42227;6.376;-10.782;2023-09-12T13:39:38;3.25;;;1.60;;
56321;SDS011;42227;6.376;-10.782;2023-09-12T13:42:09;4.83;;;2.13;;
56321;SDS011;42227;6.376;-10.782;2023-09-12T13:44:39;2.17;;;1.67;;
56321;SDS011;42227;6.376;-10.782;2023-09-12T13:47:07;2.10;;;1.77;;
56321;SDS011;42227;6.376;-10.782;2023-09-12T13:49:36;5.45;;;1.90;;
56321;SDS011;42227;6.376;-10.782;2023-09-12T13:52:07;4.93;;;2.08;;
56321;SDS011;42227;6.376;-10.782;2023-09-12T13:54:35;2.97;;;2.15;;
56321;SDS011;42227;6.376;-10.782;2023-09-12T13:57:04;6.47;;;2.53;;
56321;SDS011;42227;6.376;-10.782;2023-09-12T13:59:33;7.47;;;1.90;;
56321;SDS011;42227;6.376;-10.782;2023-09-12T14:02:11;2.85;;;1.88;;
56321;SDS011;42227;6.376;-10.782;2023-09-12T14:04:42;3.65;;;2.40;;
56321;SDS011;42227;6.376;-10.782;2023-09-12T14:07:38;9.70;;;2.20;;
56321;SDS011;42227;6.376;-10.782;2023-09-12T14:10:07;2.60;;;2.03;;
56321;SDS011;42227;6.376;-10.782;2023-09-12T14:12:38;1.48;;;1.15;;
56321;SDS011;42227;6.376;-10.782;2023-09-12T14:15:07;3.88;;;1.52;;
56321;SDS011;42227;6.376;-10.782;2023-09-12T14:17:36;6.63;;;2.53;;
56321;SDS011;42227;6.376;-10.782;2023-09-12T14:20:14;2.40;;;1.50;;
56321;SDS011;42227;6.376;-10.782;2023-09-12T14:22:43;7.68;;;2.38;;
56321;SDS011;42227;6.376;-10.782;2023-09-12T14:25:11;3.22;;;1.85;;
56321;SDS011;42227;6.376;-10.782;2023-09-12T14:27:44;4.22;;;2.10;;
56321;SDS011;42227;6.376;-10.782;2023-09-12T14:30:13;3.55;;;1.77;;
56321;SDS011;42227;6.376;-10.782;2023-09-12T14:32:41;2.53;;;1.40;;
56321;SDS011;42227;6.376;-10.782;2023-09-12T14:35:10;5.55;;;2.65;;
56321;SDS011;42227;6.376;-10.782;2023-09-12T14:37:38;6.03;;;2.42;;
56321;SDS011;42227;6.376;-10.782;2023-09-12T14:40:07;3.13;;;2.10;;
56321;SDS011;42227;6.376;-10.782;2023-09-12T14:42:36;3.47;;;2.25;;
56321;SDS011;42227;6.376;-10.782;2023-09-12T14:45:05;7.35;;;2.65;;
56321;SDS011;42227;6.376;-10.782;2023-09-12T14:47:34;9.68;;;2.50;;
56321;SDS011;42227;6.376;-10.782;2023-09-12T14:50:03;2.53;;;1.90;;
56321;SDS011;42227;6.376;-10.782;2023-09-12T14:52:32;5.10;;;2.35;;
56321;SDS011;42227;6.376;-10.782;2023-09-12T14:55:00;4.47;;;2.25;;
56321;SDS011;42227;6.376;-10.782;2023-09-12T14:57:29;4.38;;;2.35;;
56321;SDS011;42227;6.376;-10.782;2023-09-12T14:59:57;26.05;;;5.07;;
56321;SDS011;42227;6.376;-10.782;2023-09-12T15:02:29;8.75;;;2.55;;
56321;SDS011;42227;6.376;-10.782;2023-09-12T15:04:59;5.65;;;2.75;;
56321;SDS011;42227;6.376;-10.782;2023-09-12T15:07:29;5.82;;;2.63;;
56321;SDS011;42227;6.376;-10.782;2023-09-12T15:09:58;7.72;;;3.50;;
56321;SDS011;42227;6.376;-10.782;2023-09-12T15:12:29;8.80;;;3.97;;
56321;SDS011;42227;6.376;-10.782;2023-09-12T15:14:58;7.65;;;3.88;;
56321;SDS011;42227;6.376;-10.782;2023-09-12T15:17:28;7.43;;;3.25;;
56321;SDS011;42227;6.376;-10.782;2023-09-12T15:19:56;4.35;;;2.90;;
56321;SDS011;42227;6.376;-10.782;2023-09-12T15:22:25;7.43;;;3.53;;
56321;SDS011;42227;6.376;-10.782;2023-09-12T15:24:54;8.43;;;3.97;;
56321;SDS011;42227;6.376;-10.782;2023-09-12T15:27:23;9.38;;;5.03;;
56321;SDS011;42227;6.376;-10.782;2023-09-12T15:29:52;13.00;;;5.13;;
56321;SDS011;42227;6.376;-10.782;2023-09-12T15:32:20;8.75;;;4.20;;